Time;durP1;ratioP1;P1;durP2;ratioP2;P2;SDS_P1;SDS_P2;PMS_P1;PMS_P2;Temp;Humidity;BMP_temperature;BMP_pressure;BME280_temperature;BME280_humidity;BME280_pressure;Samples;Min_cycle;Max_cycle;Signal;HPM_P1;HPM_P2
2023/08/23 00:01:48;;;;;;;5.20;4.50;;;15.30;99.90;;;;;;5138555;27;20050;-62
2023/08/23 00:04:14;;;;;;;6.10;4.85;;;15.30;99.90;;;;;;5133768;27;20076;-61
2023/08/23 00:06:40;;;;;;;5.43;4.50;;;15.30;99.90;;;;;;5104809;27;20035;-61
2023/08/23 00:09:05;;;;;;;6.78;4.03;;;15.30;99.90;;;;;;5123315;27;20488;-62
2023/08/23 00:11:31;;;;;;;5.43;4.75;;;15.20;99.90;;;;;;5116043;27;20057;-61
2023/08/23 00:13:57;;;;;;;5.55;4.75;;;15.20;99.90;;;;;;5137853;27;20493;-62
2023/08/23 00:16:23;;;;;;;5.20;4.70;;;15.20;99.90;;;;;;5134882;27;20035;-61
2023/08/23 00:18:50;;;;;;;7.05;4.75;;;15.20;99.90;;;;;;5139214;27;20039;-61
2023/08/23 00:21:16;;;;;;;5.47;4.95;;;15.20;99.90;;;;;;5126925;27;20045;-62
2023/08/23 00:23:42;;;;;;;5.15;4.75;;;15.20;99.90;;;;;;5142772;27;20038;-62
2023/08/23 00:26:07;;;;;;;5.75;4.28;;;15.20;99.90;;;;;;5126385;27;20078;-61
2023/08/23 00:28:33;;;;;;;4.05;3.65;;;15.20;99.90;;;;;;5131169;27;20077;-63
2023/08/23 00:30:59;;;;;;;4.95;4.45;;;15.10;99.90;;;;;;5124286;27;20438;-61
2023/08/23 00:33:24;;;;;;;4.10;3.75;;;15.10;99.90;;;;;;5139929;27;20117;-62
2023/08/23 00:35:50;;;;;;;5.10;3.83;;;15.10;99.90;;;;;;5138371;27;20038;-61
2023/08/23 00:38:16;;;;;;;4.60;4.20;;;15.10;99.90;;;;;;5137579;27;20031;-62
2023/08/23 00:40:41;;;;;;;5.20;4.35;;;15.00;99.90;;;;;;5126515;27;20045;-62
2023/08/23 00:43:07;;;;;;;5.97;4.30;;;15.00;99.90;;;;;;5127685;27;20536;-61
2023/08/23 00:45:37;;;;;;;4.63;4.10;;;14.90;99.90;;;;;;5146467;27;20038;-62
2023/08/23 00:48:04;;;;;;;5.43;4.50;;;14.90;99.90;;;;;;5142879;27;20122;-62
2023/08/23 00:50:31;;;;;;;4.85;4.43;;;14.90;99.90;;;;;;5144011;27;20118;-60
2023/08/23 00:52:57;;;;;;;4.60;4.20;;;14.80;99.90;;;;;;5139293;27;20423;-61
2023/08/23 00:55:23;;;;;;;5.07;4.35;;;14.80;99.90;;;;;;5124259;27;20043;-61
2023/08/23 00:57:50;;;;;;;6.07;4.57;;;14.80;99.90;;;;;;5142482;27;20103;-62
2023/08/23 01:00:16;;;;;;;5.13;4.63;;;14.80;99.90;;;;;;5141787;27;20519;-61
2023/08/23 01:02:42;;;;;;;4.50;4.10;;;14.70;99.90;;;;;;5144614;27;20114;-61
2023/08/23 01:05:08;;;;;;;5.13;4.63;;;14.70;99.90;;;;;;5140039;27;20039;-61
2023/08/23 01:07:44;;;;;;;5.50;4.22;;;14.70;99.90;;;;;;5147812;27;20035;-62
2023/08/23 01:10:17;;;;;;;5.32;4.50;;;14.70;99.90;;;;;;5141895;27;20054;-61
2023/08/23 01:13:08;;;;;;;5.15;4.75;;;14.60;99.90;;;;;;5147436;27;20034;-62
2023/08/23 01:15:35;;;;;;;4.50;4.10;;;14.60;99.90;;;;;;5145443;27;20543;-61
2023/08/23 01:18:02;;;;;;;5.55;5.05;;;14.60;99.90;;;;;;5123417;27;20560;-61
2023/08/23 01:20:28;;;;;;;5.28;4.72;;;14.60;99.90;;;;;;5133685;27;20485;-62
2023/08/23 01:23:13;;;;;;;4.85;4.45;;;14.50;99.90;;;;;;5148791;27;20043;-62
2023/08/23 01:25:50;;;;;;;4.78;4.38;;;14.60;99.90;;;;;;5123248;27;20446;-61
2023/08/23 01:28:16;;;;;;;4.72;4.32;;;14.50;99.90;;;;;;5134598;27;20041;-61
2023/08/23 01:30:42;;;;;;;5.97;4.90;;;14.50;99.90;;;;;;5141542;27;20061;-61
2023/08/23 01:33:30;;;;;;;6.25;5.68;;;14.50;99.90;;;;;;5140912;27;20142;-62
2023/08/23 01:36:22;;;;;;;6.07;5.40;;;14.50;99.90;;;;;;5142955;27;20045;-61
2023/08/23 01:38:50;;;;;;;6.13;5.35;;;14.60;99.90;;;;;;5123869;27;20041;-61
2023/08/23 01:41:16;;;;;;;5.78;5.28;;;14.60;99.90;;;;;;5141980;27;20035;-61
2023/08/23 01:43:45;;;;;;;6.25;5.38;;;14.50;99.90;;;;;;5137661;27;20030;-62
2023/08/23 01:46:11;;;;;;;5.40;5.00;;;14.50;99.90;;;;;;5137077;27;20357;-61
2023/08/23 01:48:37;;;;;;;5.65;5.15;;;14.40;99.90;;;;;;5121986;27;20078;-61
2023/08/23 01:51:03;;;;;;;5.63;5.13;;;14.40;99.90;;;;;;5127672;27;20071;-62
2023/08/23 01:53:29;;;;;;;6.68;6.07;;;14.40;99.90;;;;;;5138846;27;20037;-62
2023/08/23 01:55:55;;;;;;;5.78;5.28;;;14.50;99.90;;;;;;5142088;27;20034;-62
2023/08/23 01:58:20;;;;;;;5.88;5.38;;;14.40;99.90;;;;;;5144652;27;20035;-61
2023/08/23 02:00:47;;;;;;;5.70;5.20;;;14.40;99.90;;;;;;5115006;27;20088;-62
2023/08/23 02:03:13;;;;;;;6.07;5.57;;;14.40;99.90;;;;;;5145761;27;20116;-63
2023/08/23 02:05:39;;;;;;;5.63;5.20;;;14.40;99.90;;;;;;5136387;27;20122;-61
2023/08/23 02:08:05;;;;;;;6.15;5.55;;;14.50;99.90;;;;;;5118675;27;20529;-62
2023/08/23 02:10:30;;;;;;;6.05;5.45;;;14.40;99.90;;;;;;5116614;27;20038;-61
2023/08/23 02:12:56;;;;;;;5.95;5.35;;;14.50;99.90;;;;;;5118884;27;20508;-60
2023/08/23 02:15:22;;;;;;;6.20;5.70;;;14.40;99.90;;;;;;5136275;27;20392;-62
2023/08/23 02:17:49;;;;;;;9.82;6.57;;;14.40;99.90;;;;;;5119681;27;20544;-62
2023/08/23 02:20:15;;;;;;;5.97;5.38;;;14.40;99.90;;;;;;5118989;27;20042;-61
2023/08/23 02:22:40;;;;;;;6.63;6.03;;;14.30;99.90;;;;;;5126051;27;20481;-62
2023/08/23 02:25:06;;;;;;;7.78;6.90;;;14.30;99.90;;;;;;5146319;27;20039;-61
2023/08/23 02:27:32;;;;;;;7.78;6.88;;;14.30;99.90;;;;;;5118742;27;20042;-61
2023/08/23 02:29:57;;;;;;;7.65;6.95;;;14.30;99.90;;;;;;5134387;27;20074;-62
2023/08/23 02:32:25;;;;;;;7.82;6.88;;;14.30;99.90;;;;;;5146562;27;20023;-61
2023/08/23 02:34:50;;;;;;;8.00;7.15;;;14.30;99.90;;;;;;5120531;27;20431;-61
2023/08/23 02:37:17;;;;;;;6.95;6.13;;;14.40;99.90;;;;;;5134465;27;20099;-61
2023/08/23 02:39:43;;;;;;;7.95;6.82;;;14.30;99.90;;;;;;5139239;27;20041;-61
2023/08/23 02:42:08;;;;;;;7.65;6.95;;;14.40;99.90;;;;;;5121194;27;20051;-61
2023/08/23 02:44:34;;;;;;;7.93;7.13;;;14.30;99.90;;;;;;5139391;27;20110;-62
2023/08/23 02:46:59;;;;;;;10.05;8.13;;;14.30;99.90;;;;;;5133133;27;20788;-62
2023/08/23 02:49:25;;;;;;;16.42;9.20;;;14.40;99.90;;;;;;5143486;27;20074;-61
2023/08/23 02:51:50;;;;;;;11.27;8.90;;;14.40;99.90;;;;;;5150260;27;20066;-61
2023/08/23 02:54:16;;;;;;;19.88;9.43;;;14.40;99.90;;;;;;5137202;27;20070;-62
2023/08/23 02:56:42;;;;;;;16.35;9.27;;;14.40;99.90;;;;;;5148204;27;20134;-61
2023/08/23 02:59:07;;;;;;;12.82;10.35;;;14.40;99.90;;;;;;5122008;27;20124;-61
2023/08/23 03:01:33;;;;;;;40.97;9.13;;;14.40;99.90;;;;;;5149841;27;20041;-61
2023/08/23 03:03:58;;;;;;;11.32;9.25;;;14.40;99.90;;;;;;5137896;27;20070;-61
2023/08/23 03:06:24;;;;;;;16.77;9.60;;;14.30;99.90;;;;;;5118946;27;20078;-60
2023/08/23 03:08:50;;;;;;;31.02;9.65;;;14.40;99.90;;;;;;5139157;27;20039;-61
2023/08/23 03:11:15;;;;;;;13.13;9.52;;;14.40;99.90;;;;;;5123019;27;20103;-61
2023/08/23 03:13:41;;;;;;;11.23;10.02;;;14.40;99.90;;;;;;5138230;27;20042;-62
2023/08/23 03:16:06;;;;;;;10.50;9.40;;;14.40;99.90;;;;;;5124958;27;20027;-62
2023/08/23 03:18:33;;;;;;;10.60;9.57;;;14.40;99.90;;;;;;5108168;27;20042;-62
2023/08/23 03:20:58;;;;;;;10.85;9.77;;;14.40;99.90;;;;;;5141514;27;20039;-62
2023/08/23 03:23:24;;;;;;;10.50;9.43;;;14.40;99.90;;;;;;5122335;27;20038;-61
2023/08/23 03:25:50;;;;;;;10.57;9.48;;;14.40;99.90;;;;;;5137345;27;20035;-61
2023/08/23 03:28:15;;;;;;;10.95;9.80;;;14.40;99.90;;;;;;5117763;27;20110;-61
2023/08/23 03:30:41;;;;;;;10.60;9.55;;;14.40;99.90;;;;;;5136275;27;20039;-62
2023/08/23 03:33:07;;;;;;;11.05;9.32;;;14.40;99.90;;;;;;5141574;27;20512;-62
2023/08/23 03:35:33;;;;;;;10.48;9.38;;;14.30;99.90;;;;;;5120509;27;20122;-61
2023/08/23 03:37:59;;;;;;;9.85;8.70;;;14.40;99.90;;;;;;5121906;27;20076;-61
2023/08/23 03:40:25;;;;;;;9.85;8.90;;;14.30;99.90;;;;;;5139156;27;20038;-61
2023/08/23 03:42:51;;;;;;;9.00;8.18;;;14.30;99.90;;;;;;5139987;27;20037;-62
2023/08/23 03:45:17;;;;;;;9.57;8.65;;;14.30;99.90;;;;;;5117539;27;20043;-62
2023/08/23 03:47:44;;;;;;;9.68;8.70;;;14.30;99.90;;;;;;5115670;27;20039;-61
2023/08/23 03:50:10;;;;;;;9.65;8.65;;;14.30;99.90;;;;;;5098925;28;20044;-61
2023/08/23 03:52:36;;;;;;;9.23;8.32;;;14.30;99.90;;;;;;5101480;28;20054;-61
2023/08/23 03:55:02;;;;;;;9.15;8.20;;;14.20;99.90;;;;;;5111007;27;20031;-61
2023/08/23 03:57:27;;;;;;;9.48;8.27;;;14.20;99.90;;;;;;5104018;28;20070;-62
2023/08/23 03:59:53;;;;;;;8.63;7.78;;;14.20;99.90;;;;;;5115871;27;20501;-62
2023/08/23 04:02:19;;;;;;;9.85;8.85;;;14.20;99.90;;;;;;5122923;27;20122;-61
2023/08/23 04:04:45;;;;;;;10.40;9.30;;;14.20;99.90;;;;;;5128094;27;20396;-62
2023/08/23 04:07:13;;;;;;;10.20;9.15;;;14.20;99.90;;;;;;5116841;27;20027;-61
2023/08/23 04:09:39;;;;;;;9.63;8.63;;;14.20;99.90;;;;;;5113300;27;20047;-61
2023/08/23 04:12:05;;;;;;;9.63;8.63;;;14.20;99.90;;;;;;5100457;27;20052;-61
2023/08/23 04:14:30;;;;;;;9.27;8.38;;;14.20;99.90;;;;;;5101045;28;20063;-61
2023/08/23 04:16:56;;;;;;;9.30;8.40;;;14.20;99.90;;;;;;5114473;27;20031;-62
2023/08/23 04:19:22;;;;;;;8.90;8.02;;;14.20;99.90;;;;;;5111656;27;20454;-61
2023/08/23 04:21:47;;;;;;;8.65;7.82;;;14.20;99.90;;;;;;5102762;27;20035;-61
2023/08/23 04:24:13;;;;;;;9.95;8.30;;;14.20;99.90;;;;;;5100413;27;20047;-62
2023/08/23 04:26:38;;;;;;;9.50;8.52;;;14.20;99.90;;;;;;5102198;27;20050;-61
2023/08/23 04:29:04;;;;;;;10.07;9.07;;;14.20;99.90;;;;;;5112669;27;20126;-63
2023/08/23 04:31:30;;;;;;;9.70;8.75;;;14.20;99.90;;;;;;5109994;27;20051;-62
2023/08/23 04:33:56;;;;;;;9.75;8.85;;;14.20;99.90;;;;;;5113366;27;20520;-62
2023/08/23 04:36:22;;;;;;;9.65;8.75;;;14.20;99.90;;;;;;5120043;27;20055;-61
2023/08/23 04:38:47;;;;;;;10.45;8.57;;;14.20;99.90;;;;;;5100326;27;20042;-62
2023/08/23 04:41:13;;;;;;;9.10;8.13;;;14.30;99.90;;;;;;5110425;28;20043;-61
2023/08/23 04:43:38;;;;;;;8.63;7.78;;;14.30;99.90;;;;;;5107638;27;21098;-61
2023/08/23 04:46:08;;;;;;;8.32;7.53;;;14.30;99.90;;;;;;5098160;27;20051;-61
2023/08/23 04:48:34;;;;;;;9.20;8.23;;;14.30;99.90;;;;;;5125393;27;20090;-61
2023/08/23 04:51:00;;;;;;;9.27;8.13;;;14.30;99.90;;;;;;5124890;27;20075;-62
2023/08/23 04:53:26;;;;;;;9.60;8.43;;;14.30;99.90;;;;;;5145201;27;20035;-61
2023/08/23 04:55:58;;;;;;;9.20;8.30;;;14.30;99.90;;;;;;5144558;27;20045;-62
2023/08/23 04:58:27;;;;;;;10.18;7.30;;;14.40;99.90;;;;;;5140009;27;20030;-62
2023/08/23 05:00:58;;;;;;;8.00;7.30;;;14.40;99.90;;;;;;5142690;27;20122;-61
2023/08/23 05:03:25;;;;;;;11.00;8.70;;;14.40;99.90;;;;;;5153946;27;20033;-62
2023/08/23 05:05:52;;;;;;;8.52;7.63;;;14.50;99.90;;;;;;5123704;27;20034;-61
2023/08/23 05:08:18;;;;;;;9.35;8.45;;;14.50;99.90;;;;;;5138239;27;20508;-61
2023/08/23 05:10:43;;;;;;;9.60;8.38;;;14.50;99.90;;;;;;5138769;27;20034;-61
2023/08/23 05:13:09;;;;;;;9.77;8.85;;;14.50;99.90;;;;;;5149459;27;20041;-61
2023/08/23 05:15:35;;;;;;;9.95;9.05;;;14.60;99.90;;;;;;5118281;27;20369;-61
2023/08/23 05:18:01;;;;;;;9.80;8.85;;;14.60;99.90;;;;;;5146896;27;20039;-62
2023/08/23 05:20:26;;;;;;;9.60;8.63;;;14.70;99.90;;;;;;5131814;27;20564;-62
2023/08/23 05:22:52;;;;;;;9.57;8.57;;;14.80;99.90;;;;;;5137130;27;20468;-61
2023/08/23 05:25:18;;;;;;;10.95;8.95;;;14.80;99.90;;;;;;5114307;27;20047;-62
2023/08/23 05:27:43;;;;;;;12.02;9.48;;;14.80;99.90;;;;;;5118588;27;20046;-62
2023/08/23 05:30:09;;;;;;;10.10;9.07;;;14.70;99.90;;;;;;5153497;27;20039;-62
2023/08/23 05:32:35;;;;;;;10.13;9.13;;;14.80;99.90;;;;;;5122491;27;20079;-62
2023/08/23 05:35:01;;;;;;;9.82;8.80;;;14.80;99.90;;;;;;5133048;27;20039;-61
2023/08/23 05:37:26;;;;;;;10.32;8.55;;;14.80;99.90;;;;;;5136068;27;20034;-61
2023/08/23 05:39:52;;;;;;;10.27;9.30;;;14.80;99.90;;;;;;5134840;27;20034;-61
2023/08/23 05:42:18;;;;;;;11.05;9.25;;;14.80;99.90;;;;;;5143156;27;20030;-62
2023/08/23 05:44:43;;;;;;;10.13;9.20;;;14.80;99.90;;;;;;5128805;27;20420;-62
2023/08/23 05:47:09;;;;;;;10.75;9.65;;;14.80;99.90;;;;;;5128512;27;20045;-61
2023/08/23 05:49:35;;;;;;;10.35;9.25;;;14.80;99.90;;;;;;5137636;27;20051;-62
2023/08/23 05:52:00;;;;;;;10.23;9.25;;;14.90;99.90;;;;;;5147000;27;20077;-62
2023/08/23 05:54:26;;;;;;;10.48;9.48;;;14.90;99.90;;;;;;5138924;27;20034;-61
2023/08/23 05:56:52;;;;;;;9.77;8.88;;;15.00;99.90;;;;;;5147127;27;20027;-62
2023/08/23 05:59:17;;;;;;;11.00;9.30;;;15.00;99.90;;;;;;5117374;27;20078;-62
2023/08/23 06:01:43;;;;;;;10.77;9.68;;;15.10;99.90;;;;;;5140819;27;20039;-63
2023/08/23 06:04:08;;;;;;;13.30;10.00;;;15.10;99.90;;;;;;5114440;27;20039;-62
2023/08/23 06:06:34;;;;;;;10.50;9.40;;;15.20;99.90;;;;;;5139583;27;20092;-62
2023/08/23 06:09:00;;;;;;;10.75;8.93;;;15.20;99.90;;;;;;5140674;27;20402;-63
2023/08/23 06:11:26;;;;;;;12.45;10.00;;;15.30;99.90;;;;;;5121521;27;20050;-63
2023/08/23 06:13:51;;;;;;;10.52;9.30;;;15.40;99.90;;;;;;5148963;27;20026;-62
2023/08/23 06:16:17;;;;;;;12.55;9.60;;;15.60;99.90;;;;;;5113749;27;20114;-61
2023/08/23 06:18:43;;;;;;;10.15;9.23;;;15.70;99.90;;;;;;5119003;27;20035;-62
2023/08/23 06:21:08;;;;;;;10.50;9.35;;;15.90;99.90;;;;;;5132275;27;20040;-62
2023/08/23 06:23:36;;;;;;;9.85;8.88;;;16.10;99.90;;;;;;5122129;27;20050;-62
2023/08/23 06:26:02;;;;;;;10.30;9.30;;;16.20;99.90;;;;;;5113709;27;20500;-63
2023/08/23 06:28:28;;;;;;;10.68;9.57;;;16.30;99.90;;;;;;5139753;27;20046;-62
2023/08/23 06:30:57;;;;;;;11.20;9.52;;;16.50;99.90;;;;;;5122638;27;20043;-63
2023/08/23 06:33:23;;;;;;;10.32;9.30;;;16.70;99.90;;;;;;5122774;27;20050;-63
2023/08/23 06:35:48;;;;;;;10.57;9.27;;;16.90;99.90;;;;;;5132256;27;20380;-62
2023/08/23 06:38:15;;;;;;;9.95;8.95;;;17.10;99.90;;;;;;5140422;27;20504;-62
2023/08/23 06:40:42;;;;;;;10.48;9.48;;;17.20;99.90;;;;;;5115365;27;20059;-62
2023/08/23 06:43:08;;;;;;;11.23;9.38;;;17.40;99.90;;;;;;5136695;27;20478;-62
2023/08/23 06:45:34;;;;;;;8.93;8.02;;;17.60;99.90;;;;;;5132251;27;20067;-62
2023/08/23 06:47:59;;;;;;;12.10;8.65;;;17.70;99.90;;;;;;5118152;27;20062;-62
2023/08/23 06:50:25;;;;;;;9.18;8.27;;;17.90;99.90;;;;;;5147898;27;20050;-62
2023/08/23 06:52:51;;;;;;;8.32;7.43;;;18.00;99.90;;;;;;5136474;27;20026;-63
2023/08/23 06:55:16;;;;;;;9.13;8.00;;;18.20;99.90;;;;;;5120341;27;20035;-62
2023/08/23 06:57:42;;;;;;;9.35;8.00;;;18.40;99.90;;;;;;5138152;27;20043;-62
2023/08/23 07:00:08;;;;;;;8.38;7.57;;;18.50;99.90;;;;;;5123622;27;20049;-62
2023/08/23 07:02:34;;;;;;;190.23;16.90;;;18.70;99.90;;;;;;5148025;27;20039;-62
2023/08/23 07:05:00;;;;;;;7.78;7.00;;;18.80;99.90;;;;;;5136385;27;20108;-65
2023/08/23 07:07:26;;;;;;;15.07;7.57;;;18.80;99.90;;;;;;5116765;27;20070;-65
2023/08/23 07:09:52;;;;;;;9.77;7.60;;;18.70;99.90;;;;;;5099323;27;20105;-65
2023/08/23 07:12:17;;;;;;;8.85;7.97;;;18.70;99.90;;;;;;5119271;27;20031;-66
2023/08/23 07:14:45;;;;;;;9.13;7.75;;;18.60;99.90;;;;;;5099581;27;20382;-65
2023/08/23 07:17:11;;;;;;;9.68;8.68;;;18.60;99.90;;;;;;5132496;27;20095;-65
2023/08/23 07:19:36;;;;;;;9.98;8.98;;;18.60;99.90;;;;;;5118600;27;20031;-65
2023/08/23 07:22:03;;;;;;;12.75;10.18;;;18.50;99.90;;;;;;5130738;27;20627;-65
2023/08/23 07:24:28;;;;;;;10.30;8.75;;;18.40;99.90;;;;;;5116230;27;20108;-65
2023/08/23 07:26:55;;;;;;;9.27;8.30;;;18.40;99.90;;;;;;5131509;27;20039;-65
2023/08/23 07:29:21;;;;;;;9.98;8.38;;;18.50;99.90;;;;;;5130965;27;20398;-66
2023/08/23 07:31:46;;;;;;;10.05;8.55;;;18.80;99.90;;;;;;5131344;27;20083;-65
2023/08/23 07:34:12;;;;;;;9.00;8.10;;;19.10;99.90;;;;;;5116792;27;20088;-65
2023/08/23 07:36:37;;;;;;;8.88;7.78;;;19.30;99.90;;;;;;5128473;27;20091;-64
2023/08/23 07:39:03;;;;;;;8.15;7.32;;;19.50;99.90;;;;;;5133070;27;20051;-65
2023/08/23 07:41:30;;;;;;;10.27;8.15;;;19.80;99.90;;;;;;5114837;27;20046;-66
2023/08/23 07:43:55;;;;;;;7.28;6.63;;;19.90;99.90;;;;;;5143427;27;20085;-66
2023/08/23 07:46:21;;;;;;;7.72;6.95;;;20.10;99.90;;;;;;5116666;27;20194;-65
2023/08/23 07:48:46;;;;;;;7.53;6.45;;;20.30;99.90;;;;;;5119452;27;20055;-65
2023/08/23 07:51:12;;;;;;;7.45;6.70;;;20.40;99.90;;;;;;5100840;27;20039;-65
2023/08/23 07:53:38;;;;;;;8.13;6.93;;;20.60;99.90;;;;;;5133264;27;20038;-66
2023/08/23 07:56:04;;;;;;;9.63;6.80;;;20.70;99.90;;;;;;5135097;27;20046;-65
2023/08/23 07:58:29;;;;;;;7.78;6.97;;;20.70;99.90;;;;;;5130832;27;20386;-66
2023/08/23 08:00:55;;;;;;;7.32;6.63;;;20.80;99.90;;;;;;5133167;27;20049;-65
2023/08/23 08:03:20;;;;;;;7.93;6.95;;;20.90;99.90;;;;;;5147596;27;20047;-66
2023/08/23 08:05:46;;;;;;;8.75;6.32;;;20.90;99.90;;;;;;5112728;28;20108;-65
2023/08/23 08:08:12;;;;;;;6.90;6.20;;;21.00;99.90;;;;;;5131998;27;20039;-66
2023/08/23 08:10:38;;;;;;;6.57;5.90;;;21.10;99.90;;;;;;5129904;27;20431;-66
2023/08/23 08:13:04;;;;;;;7.90;6.70;;;21.20;99.90;;;;;;5114114;27;20046;-66
2023/08/23 08:15:31;;;;;;;8.23;6.25;;;21.30;99.90;;;;;;5114576;27;20027;-66
2023/08/23 08:17:57;;;;;;;7.90;7.10;;;21.50;99.90;;;;;;5113107;27;20039;-65
2023/08/23 08:20:26;;;;;;;7.07;6.38;;;21.40;99.90;;;;;;5122735;27;20401;-65
2023/08/23 08:22:52;;;;;;;8.43;6.82;;;21.60;99.90;;;;;;5112727;28;20035;-65
2023/08/23 08:25:18;;;;;;;7.70;6.78;;;21.80;99.90;;;;;;5112402;27;20469;-65
2023/08/23 08:27:43;;;;;;;7.82;6.78;;;21.80;99.90;;;;;;5112994;27;20089;-65
2023/08/23 08:30:09;;;;;;;7.18;5.82;;;22.00;99.90;;;;;;5114041;27;20047;-65
2023/08/23 08:32:35;;;;;;;8.30;6.53;;;21.90;99.90;;;;;;5112184;27;20035;-66
2023/08/23 08:35:01;;;;;;;7.72;5.75;;;22.00;99.90;;;;;;5114399;27;20121;-66
2023/08/23 08:37:26;;;;;;;8.45;6.50;;;22.10;99.90;;;;;;5112088;28;20042;-67
2023/08/23 08:39:52;;;;;;;7.95;6.63;;;22.20;99.90;;;;;;5118659;27;20038;-65
2023/08/23 08:42:18;;;;;;;6.82;6.13;;;22.50;99.90;;;;;;5117368;27;20051;-67
2023/08/23 08:44:46;;;;;;;9.00;6.57;;;22.60;99.90;;;;;;5147819;27;20039;-65
2023/08/23 08:47:12;;;;;;;8.73;7.00;;;22.60;99.90;;;;;;5118092;27;20381;-65
2023/08/23 08:49:38;;;;;;;8.13;6.95;;;22.70;99.90;;;;;;5123959;27;20044;-65
2023/08/23 08:52:05;;;;;;;9.63;7.45;;;22.60;99.90;;;;;;5109901;27;20054;-65
2023/08/23 08:54:34;;;;;;;8.02;6.70;;;22.50;99.90;;;;;;5094986;28;20091;-65
2023/08/23 08:57:04;;;;;;;7.93;6.35;;;22.60;99.90;;;;;;5110849;28;20046;-65
2023/08/23 08:59:31;;;;;;;8.15;6.60;;;22.70;99.90;;;;;;5109602;28;20049;-66
2023/08/23 09:02:00;;;;;;;8.27;6.57;;;22.70;99.90;;;;;;5109558;28;20168;-65
2023/08/23 09:04:26;;;;;;;8.43;6.63;;;22.80;99.90;;;;;;5111730;28;20039;-66
2023/08/23 09:06:53;;;;;;;8.63;7.47;;;22.80;99.90;;;;;;5107635;28;20514;-66
2023/08/23 09:09:20;;;;;;;9.63;6.80;;;22.70;99.90;;;;;;5111888;28;20075;-65
2023/08/23 09:11:45;;;;;;;8.20;7.28;;;23.00;99.90;;;;;;5104674;27;20068;-65
2023/08/23 09:14:21;;;;;;;11.25;7.18;;;23.20;99.90;;;;;;5108843;28;20053;-65
2023/08/23 09:16:47;;;;;;;8.85;7.10;;;23.30;99.90;;;;;;5107433;28;20050;-66
2023/08/23 09:19:16;;;;;;;7.50;6.72;;;23.50;99.90;;;;;;5107558;28;20047;-65
2023/08/23 09:21:47;;;;;;;8.40;6.75;;;23.50;99.90;;;;;;5109621;27;20071;-65
2023/08/23 09:24:13;;;;;;;7.33;6.30;;;23.40;99.90;;;;;;5112038;28;20043;-67
2023/08/23 09:26:39;;;;;;;9.82;7.32;;;23.60;99.90;;;;;;5108443;27;20312;-65
2023/08/23 09:29:05;;;;;;;10.43;7.15;;;23.70;99.90;;;;;;5109611;27;20470;-66
2023/08/23 09:31:31;;;;;;;6.97;6.20;;;23.80;99.90;;;;;;5109246;28;20405;-66
2023/08/23 09:33:58;;;;;;;9.02;6.40;;;24.10;99.90;;;;;;5125627;27;20035;-66
2023/08/23 09:36:40;;;;;;;7.72;5.85;;;24.20;99.90;;;;;;5128540;27;20046;-65
2023/08/23 09:39:12;;;;;;;6.10;5.50;;;24.20;99.90;;;;;;5108919;28;20057;-65
2023/08/23 09:41:39;;;;;;;9.00;6.15;;;24.40;99.90;;;;;;5127978;27;20432;-65
2023/08/23 09:44:06;;;;;;;7.45;6.35;;;24.60;99.90;;;;;;5108704;28;20104;-65
2023/08/23 09:46:35;;;;;;;9.70;5.82;;;24.60;99.90;;;;;;5109410;28;20039;-65
2023/08/23 09:49:03;;;;;;;8.80;5.57;;;24.60;99.90;;;;;;5107582;27;20463;-65
2023/08/23 09:51:34;;;;;;;9.07;6.57;;;24.80;99.90;;;;;;5111119;28;20418;-64
2023/08/23 09:54:25;;;;;;;6.70;5.47;;;24.70;99.90;;;;;;5113178;27;20043;-65
2023/08/23 09:56:51;;;;;;;9.90;5.73;;;24.80;99.90;;;;;;5110724;28;20077;-65
2023/08/23 09:59:18;;;;;;;9.02;6.80;;;24.90;99.90;;;;;;5110565;27;20289;-66
2023/08/23 10:01:44;;;;;;;8.00;6.43;;;24.70;99.90;;;;;;5113161;27;20053;-65
2023/08/23 10:04:10;;;;;;;10.38;6.90;;;24.60;99.90;;;;;;5127960;27;20386;-66
2023/08/23 10:06:36;;;;;;;9.00;6.57;;;24.60;99.90;;;;;;5110464;28;20115;-65
2023/08/23 10:09:03;;;;;;;10.57;6.63;;;24.70;99.90;;;;;;5110869;28;20577;-65
2023/08/23 10:11:30;;;;;;;11.40;6.78;;;24.70;99.90;;;;;;5110432;27;20047;-65
2023/08/23 10:13:58;;;;;;;9.13;6.47;;;24.80;99.90;;;;;;5110376;27;20038;-65
2023/08/23 10:16:25;;;;;;;7.50;6.05;;;24.80;99.90;;;;;;5114686;27;20451;-65
2023/08/23 10:18:52;;;;;;;10.35;6.40;;;25.00;99.90;;;;;;5093551;27;20120;-65
2023/08/23 10:21:18;;;;;;;8.90;6.10;;;25.30;99.90;;;;;;5110740;28;20039;-64
2023/08/23 10:23:44;;;;;;;9.05;6.63;;;25.40;99.90;;;;;;5111927;27;20044;-66
2023/08/23 10:26:21;;;;;;;10.25;6.68;;;25.60;99.90;;;;;;5111985;27;20047;-65
2023/08/23 10:28:53;;;;;;;9.23;6.53;;;25.70;99.90;;;;;;5110100;28;20072;-65
2023/08/23 10:31:28;;;;;;;8.30;6.30;;;25.70;99.90;;;;;;5114096;27;20039;-65
2023/08/23 10:33:57;;;;;;;7.55;5.75;;;25.80;99.90;;;;;;5113980;27;20039;-65
2023/08/23 10:36:28;;;;;;;6.68;5.78;;;26.20;99.90;;;;;;5114954;27;20487;-64
2023/08/23 10:38:58;;;;;;;7.28;5.53;;;26.40;99.90;;;;;;5130440;27;20053;-65
2023/08/23 10:41:25;;;;;;;7.85;6.20;;;26.60;99.90;;;;;;5123289;27;20035;-66
2023/08/23 10:43:51;;;;;;;10.05;6.57;;;26.80;99.90;;;;;;5112945;27;20490;-65
2023/08/23 10:46:22;;;;;;;9.55;6.70;;;26.50;99.90;;;;;;5114157;27;20042;-66
2023/08/23 10:48:48;;;;;;;8.00;5.90;;;26.70;99.90;;;;;;5111383;27;20060;-65
2023/08/23 10:51:15;;;;;;;11.02;6.50;;;26.80;99.90;;;;;;5110780;28;20062;-65
2023/08/23 10:53:42;;;;;;;12.40;6.88;;;26.70;99.90;;;;;;5112652;27;20047;-64
2023/08/23 10:56:09;;;;;;;8.75;6.68;;;26.70;99.10;;;;;;5124246;27;20122;-64
2023/08/23 10:58:36;;;;;;;11.30;6.80;;;26.60;99.90;;;;;;5126863;27;20039;-66
2023/08/23 11:01:02;;;;;;;9.27;6.35;;;26.80;99.70;;;;;;5111788;27;20078;-64
2023/08/23 11:03:28;;;;;;;7.82;6.65;;;26.70;99.20;;;;;;5126492;27;20093;-64
2023/08/23 11:05:55;;;;;;;9.45;7.20;;;26.70;99.00;;;;;;5130654;27;20095;-65
2023/08/23 11:08:22;;;;;;;10.27;7.38;;;26.50;99.40;;;;;;5117095;27;20043;-64
2023/08/23 11:10:48;;;;;;;7.95;6.80;;;26.40;99.80;;;;;;5112377;27;20142;-65
2023/08/23 11:13:14;;;;;;;8.65;6.88;;;26.40;99.90;;;;;;5128410;27;20103;-65
2023/08/23 11:15:43;;;;;;;8.20;7.07;;;26.10;99.90;;;;;;5119053;27;20039;-65
2023/08/23 11:18:10;;;;;;;9.13;6.55;;;26.00;99.90;;;;;;5110771;27;20078;-65
2023/08/23 11:20:36;;;;;;;10.50;6.78;;;25.80;99.90;;;;;;5109488;28;20039;-64
2023/08/23 11:23:01;;;;;;;10.40;7.10;;;25.80;99.90;;;;;;5125381;27;20049;-65
2023/08/23 11:25:28;;;;;;;8.30;7.00;;;25.70;99.90;;;;;;5131048;27;20079;-65
2023/08/23 11:27:53;;;;;;;8.35;6.72;;;25.50;99.90;;;;;;5113218;27;20060;-65
2023/08/23 11:30:20;;;;;;;8.48;6.43;;;25.60;99.90;;;;;;5116423;27;20082;-65
2023/08/23 11:32:46;;;;;;;9.40;5.95;;;25.70;99.90;;;;;;5123572;27;20078;-64
2023/08/23 11:35:12;;;;;;;10.45;5.70;;;25.90;99.90;;;;;;5108722;28;20051;-64
2023/08/23 11:37:38;;;;;;;5.78;5.18;;;26.00;99.90;;;;;;5108839;28;20517;-65
2023/08/23 11:40:13;;;;;;;7.00;5.57;;;26.00;99.40;;;;;;5112426;28;20035;-66
2023/08/23 11:42:39;;;;;;;8.60;5.78;;;26.00;98.90;;;;;;5109999;28;20038;-65
2023/08/23 11:45:05;;;;;;;7.85;4.75;;;26.00;99.10;;;;;;5109159;28;20143;-65
2023/08/23 11:47:32;;;;;;;7.30;5.32;;;26.10;99.20;;;;;;5119507;28;20035;-65
2023/08/23 11:49:58;;;;;;;7.78;4.93;;;26.00;99.20;;;;;;5132855;27;20138;-65
2023/08/23 11:52:27;;;;;;;4.68;4.13;;;26.10;98.90;;;;;;5124093;27;20133;-64
2023/08/23 11:54:53;;;;;;;6.68;4.65;;;26.10;98.40;;;;;;5128681;27;20386;-65
2023/08/23 11:57:19;;;;;;;5.70;3.55;;;25.90;98.40;;;;;;5132687;27;20034;-64
2023/08/23 11:59:45;;;;;;;5.78;3.28;;;25.90;98.20;;;;;;5120375;27;20103;-65
2023/08/23 12:02:11;;;;;;;6.95;4.00;;;25.70;96.60;;;;;;5114889;27;20370;-65
2023/08/23 12:04:41;;;;;;;5.78;4.00;;;25.70;97.50;;;;;;5112306;27;20114;-64
2023/08/23 12:07:07;;;;;;;5.45;3.22;;;25.80;97.00;;;;;;5116110;28;20066;-66
2023/08/23 12:09:33;;;;;;;6.18;3.10;;;25.90;97.00;;;;;;5128517;27;20038;-65
2023/08/23 12:12:02;;;;;;;6.20;2.85;;;25.90;95.70;;;;;;5105527;27;20043;-65
2023/08/23 12:14:29;;;;;;;4.68;3.70;;;25.90;96.50;;;;;;5111511;27;20031;-65
2023/08/23 12:16:55;;;;;;;7.60;3.05;;;25.70;96.10;;;;;;5115840;27;20039;-66
2023/08/23 12:19:21;;;;;;;7.38;3.70;;;25.50;97.50;;;;;;5134691;27;20180;-65
2023/08/23 12:21:46;;;;;;;5.10;3.78;;;25.20;97.50;;;;;;5140469;27;20046;-65
2023/08/23 12:24:12;;;;;;;5.05;4.35;;;25.10;98.10;;;;;;5136695;27;20042;-65
2023/08/23 12:26:38;;;;;;;9.13;4.25;;;25.00;99.10;;;;;;5132551;27;20130;-65
2023/08/23 12:29:04;;;;;;;6.30;3.97;;;24.90;99.50;;;;;;5113323;27;20050;-64
2023/08/23 12:31:29;;;;;;;8.85;4.13;;;24.90;99.40;;;;;;5129866;27;20041;-65
2023/08/23 12:33:55;;;;;;;7.32;3.70;;;24.70;99.60;;;;;;5134901;27;20030;-65
2023/08/23 12:36:21;;;;;;;6.72;3.15;;;24.80;99.80;;;;;;5118875;27;20042;-66
2023/08/23 12:38:47;;;;;;;4.00;2.00;;;24.80;99.90;;;;;;5135292;27;20030;-64
2023/08/23 12:41:13;;;;;;;4.13;2.05;;;24.80;98.60;;;;;;5146536;27;20047;-65